Inicio METAR Ruta Wind Satelite

Informe Meteorológico

Fecha: 2020/07/02 00:29:26 Local
2020.07.02 05:29 UTC


Estado: VENCIDO
Operación:VFR
Bucaramanga / Palonegro, Colombia (SKBG) 07-06N 073-12W
2020.07.01 2200 UTC
Wind: from the NNW (330 degrees) at 6 MPH (5 KT):0
Visibility: greater than 7 mile(s):0
Sky conditions: mostly cloudy
Weather: light rain
Temperature: 73 F (23 C)
Dew Point: 68 F (20 C)
Relative Humidity: 83%
Pressure (altimeter): 29.92 in. Hg (1013 hPa)
ob: SKBG 012200Z 33005KT 9999 -RA SCT012 BKN080 23/20 A2992
cycle: 22

SKBG 012100Z 31005KT 9999 SCT015 BKN080 23/20 A2991
SKBG 012000Z 32005KT 9999 SCT012 BKN080 23/21 A2992
SKBG 011900Z 32006KT 9999 SCT015 SCT070 23/23 A2994 RERA
SKBG 011800Z 33006KT 9999 VCSH SCT015TCU SCT080 25/20 A2996 RMK TCU VCSH/E
SKBG 011700Z 35005KT 9999 SCT015 SCT080 26/19 A2997

2020/07/02 06:40
TAF SKBG 020430Z 0206/0306 00000KT 9999 SCT010 SCT070
TEMPO 0209/0212 0100 FG VV///
BECMG 0214/0216 33010KT
TEMPO 0219/0222 DZ SCT015TCU BKN080
BECMG 0301/0303 00000KT TX28/0218Z TN18/0211Z